Time;durP1;ratioP1;P1;durP2;ratioP2;P2;SDS_P1;SDS_P2;PMS_P1;PMS_P2;Temp;Humidity;BMP_temperature;BMP_pressure;BME280_temperature;BME280_humidity;BME280_pressure;Samples;Min_cycle;Max_cycle;Signal;HPM_P1;HPM_P2
2022/10/17 00:01:33;;;;;;;1999.90;999.90;;;17.60;99.90;;;;;;6707584;88;20183;-77
2022/10/17 00:11:34;;;;;;;1999.90;999.90;;;17.70;99.90;;;;;;6705399;88;20190;-77
2022/10/17 00:21:35;;;;;;;1999.90;999.90;;;17.80;99.90;;;;;;6689629;88;20679;-76
2022/10/17 00:31:35;;;;;;;1999.90;999.90;;;17.90;99.90;;;;;;6690349;88;20190;-76
2022/10/17 00:41:36;;;;;;;1999.90;999.90;;;17.80;99.90;;;;;;6696981;88;20217;-77
2022/10/17 00:51:41;;;;;;;1999.90;999.90;;;17.80;99.90;;;;;;6709633;88;20583;-77
2022/10/17 01:01:50;;;;;;;1999.90;999.90;;;17.70;99.90;;;;;;6686277;88;20215;-76
2022/10/17 01:12:20;;;;;;;1999.90;999.90;;;17.50;99.90;;;;;;6702182;88;20225;-76
2022/10/17 01:22:27;;;;;;;1999.90;999.90;;;17.40;99.90;;;;;;6691388;88;20195;-77
2022/10/17 01:32:59;;;;;;;1999.90;999.90;;;17.40;99.90;;;;;;6711431;88;20519;-77
2022/10/17 01:43:28;;;;;;;1999.90;999.90;;;17.30;99.90;;;;;;6707206;88;20677;-76
2022/10/17 01:53:35;;;;;;;1999.90;999.90;;;17.30;99.90;;;;;;6698980;88;20185;-77
2022/10/17 02:03:39;;;;;;;1999.90;999.90;;;17.30;99.90;;;;;;6701736;88;20648;-77
2022/10/17 02:14:11;;;;;;;1999.90;999.90;;;17.40;99.90;;;;;;6703840;88;20608;-76
2022/10/17 02:24:21;;;;;;;1999.90;999.90;;;17.60;99.90;;;;;;6695475;88;20609;-76
2022/10/17 02:34:27;;;;;;;1999.90;999.90;;;17.60;99.90;;;;;;6709042;88;20220;-77
2022/10/17 02:44:30;;;;;;;1999.90;999.90;;;17.60;99.90;;;;;;6699227;88;21117;-77
2022/10/17 02:54:40;;;;;;;1999.90;999.90;;;17.60;99.90;;;;;;6704915;88;20199;-77
2022/10/17 03:04:45;;;;;;;1999.90;999.90;;;17.60;99.90;;;;;;6700015;88;20351;-77
2022/10/17 03:14:46;;;;;;;1999.90;999.90;;;17.60;99.90;;;;;;6707424;88;20410;-77
2022/10/17 03:24:46;;;;;;;1999.90;999.90;;;17.60;99.90;;;;;;6705950;88;20197;-77
2022/10/17 03:34:47;;;;;;;1999.90;999.90;;;17.60;99.90;;;;;;6708110;88;20206;-77
2022/10/17 03:55:49;;;;;;;1999.90;999.90;;;17.60;99.90;;;;;;6664236;88;20184;-81
2022/10/17 04:05:50;;;;;;;1999.90;999.90;;;17.50;99.90;;;;;;6661486;88;20191;-81
2022/10/17 04:15:59;;;;;;;1999.90;999.90;;;17.50;99.90;;;;;;6661372;88;20734;-81
2022/10/17 04:26:02;;;;;;;1999.90;999.90;;;17.60;99.90;;;;;;6644517;89;20159;-81
2022/10/17 04:36:22;;;;;;;1999.90;999.90;;;17.60;99.90;;;;;;6644746;88;20302;-81
2022/10/17 04:46:22;;;;;;;1999.90;999.90;;;17.60;99.90;;;;;;6658665;88;20191;-82
2022/10/17 04:56:24;;;;;;;1999.90;999.90;;;17.50;99.90;;;;;;6731852;88;20210;-82
2022/10/17 05:06:27;;;;;;;1999.90;999.90;;;17.50;99.90;;;;;;6726984;88;20180;-82
2022/10/17 05:16:28;;;;;;;1999.90;999.90;;;17.40;99.90;;;;;;6709925;88;20218;-82
2022/10/17 05:26:29;;;;;;;1999.90;999.90;;;17.30;99.90;;;;;;6724671;88;20796;-82
2022/10/17 05:36:29;;;;;;;1999.90;999.90;;;17.20;99.90;;;;;;6727416;88;20227;-81
2022/10/17 05:46:30;;;;;;;1999.90;999.90;;;17.30;99.90;;;;;;6727693;88;20191;-82
2022/10/17 05:56:30;;;;;;;1999.90;999.90;;;17.30;99.90;;;;;;6728534;88;20593;-81
2022/10/17 06:06:31;;;;;;;1999.90;999.90;;;17.20;99.90;;;;;;6739038;88;20714;-81
2022/10/17 06:16:32;;;;;;;1999.90;999.90;;;17.00;99.90;;;;;;6725204;88;20203;-79
2022/10/17 06:26:32;;;;;;;1999.90;999.90;;;16.90;99.90;;;;;;6724087;88;20344;-78
2022/10/17 06:36:33;;;;;;;1999.90;999.90;;;17.00;99.90;;;;;;6722216;88;20216;-79
2022/10/17 06:46:33;;;;;;;1999.90;999.90;;;17.10;99.90;;;;;;6720326;88;20218;-79
2022/10/17 06:56:34;;;;;;;1999.90;999.90;;;17.20;99.90;;;;;;6718375;88;20186;-79
2022/10/17 07:06:34;;;;;;;1999.90;999.90;;;17.30;99.90;;;;;;6730070;88;20352;-79
2022/10/17 07:16:35;;;;;;;1999.90;999.90;;;17.50;99.90;;;;;;6723167;88;20714;-80
2022/10/17 07:26:36;;;;;;;1999.90;999.90;;;17.80;99.90;;;;;;6713097;88;20229;-80
2022/10/17 07:36:37;;;;;;;1999.90;999.90;;;18.10;99.90;;;;;;6719151;88;20732;-80
2022/10/17 07:46:37;;;;;;;1999.90;999.90;;;18.10;99.90;;;;;;6728421;88;20275;-79
2022/10/17 07:56:38;;;;;;;1999.90;999.90;;;18.20;99.90;;;;;;6726877;88;20781;-79
2022/10/17 08:06:38;;;;;;;1999.90;999.90;;;18.60;99.90;;;;;;6733388;88;20190;-79
2022/10/17 08:16:39;;;;;;;1999.90;999.90;;;19.00;99.90;;;;;;6734861;88;20179;-79
2022/10/17 08:26:40;;;;;;;1999.90;999.90;;;19.30;99.90;;;;;;6740684;88;20197;-79
2022/10/17 08:36:41;;;;;;;1999.90;999.90;;;19.50;99.90;;;;;;6736034;88;20212;-79
2022/10/17 08:46:45;;;;;;;1999.90;999.90;;;19.50;99.90;;;;;;6731049;88;20531;-79
2022/10/17 08:56:48;;;;;;;;;;;19.70;99.90;;;;;;6734384;88;20250;-78
2022/10/17 09:07:00;;;;;;;1999.90;999.90;;;19.70;99.90;;;;;;6732131;88;20051;-78
2022/10/17 09:17:30;;;;;;;1999.90;999.90;;;19.70;99.90;;;;;;6720519;88;20198;-78
2022/10/17 09:27:37;;;;;;;1999.90;999.90;;;20.10;99.90;;;;;;6716089;88;20187;-78
2022/10/17 09:37:38;;;;;;;1999.90;999.90;;;21.50;99.90;;;;;;6709334;88;20220;-79
2022/10/17 09:47:45;;;;;;;1999.90;999.90;;;22.60;99.90;;;;;;6708324;77;20201;-75
2022/10/17 09:57:56;;;;;;;1999.90;999.90;;;22.60;99.90;;;;;;6699389;88;20195;-78
2022/10/17 10:08:11;;;;;;;1999.90;999.90;;;22.50;99.90;;;;;;6698361;88;20222;-77
2022/10/17 10:18:35;;;;;;;1999.90;999.90;;;22.30;99.90;;;;;;6695455;88;20312;-78
2022/10/17 10:28:36;;;;;;;1999.90;999.90;;;23.20;99.90;;;;;;6699722;88;20212;-78
2022/10/17 10:38:41;;;;;;;1999.90;999.90;;;23.90;99.90;;;;;;6697444;88;20228;-78
2022/10/17 10:48:49;;;;;;;1999.90;999.90;;;23.60;99.90;;;;;;6697767;88;20196;-75
2022/10/17 10:59:03;;;;;;;1999.90;999.90;;;24.00;99.90;;;;;;6695606;88;20239;-78
2022/10/17 11:09:27;;;;;;;1999.90;999.90;;;24.60;99.90;;;;;;6699118;88;20680;-77
2022/10/17 11:19:34;;;;;;;;;;;24.90;99.90;;;;;;6696377;88;20191;-76
2022/10/17 11:29:37;;;;;;;1999.90;999.90;;;24.40;99.90;;;;;;6699853;88;20184;-76
2022/10/17 11:39:43;;;;;;;;;;;23.70;99.90;;;;;;6701193;88;20634;-77
2022/10/17 11:49:49;;;;;;;1999.90;999.90;;;23.30;99.90;;;;;;6699790;88;20590;-78
2022/10/17 12:00:05;;;;;;;1999.90;999.90;;;22.90;99.90;;;;;;6707363;88;20742;-77
2022/10/17 12:10:33;;;;;;;1999.90;999.90;;;22.90;99.90;;;;;;6706531;88;20182;-78
2022/10/17 12:20:35;;;;;;;1999.90;999.90;;;22.70;99.90;;;;;;6698329;88;20644;-76
2022/10/17 12:30:47;;;;;;;1999.90;999.90;;;22.70;99.90;;;;;;6699853;88;20645;-76
2022/10/17 12:40:49;;;;;;;1999.90;999.90;;;22.40;99.90;;;;;;6701511;88;20204;-76
2022/10/17 12:51:12;;;;;;;1999.90;999.90;;;22.50;99.90;;;;;;6699959;88;20716;-77
2022/10/17 13:01:30;;;;;;;1999.90;999.90;;;22.40;99.90;;;;;;6695698;88;20186;-76
2022/10/17 13:11:34;;;;;;;1999.90;999.90;;;22.20;99.90;;;;;;6695371;88;20675;-76
2022/10/17 13:21:35;;;;;;;1999.90;999.90;;;22.20;99.90;;;;;;6693469;88;20249;-76
2022/10/17 13:31:38;;;;;;;1999.90;999.90;;;22.10;99.90;;;;;;6697885;88;22027;-76
2022/10/17 13:41:40;;;;;;;1999.90;999.90;;;22.20;99.90;;;;;;6698824;88;20691;-76
2022/10/17 13:51:44;;;;;;;1999.90;999.90;;;22.20;99.90;;;;;;6697924;88;20246;-76
2022/10/17 14:01:48;;;;;;;1999.90;999.90;;;22.00;99.90;;;;;;6696946;88;20187;-76
2022/10/17 14:12:11;;;;;;;1999.90;999.90;;;22.10;99.90;;;;;;6697243;88;20191;-76
2022/10/17 14:22:26;;;;;;;1999.90;999.90;;;22.20;99.90;;;;;;6692055;88;20182;-76
2022/10/17 14:32:30;;;;;;;1999.90;999.90;;;22.40;99.90;;;;;;6696744;88;20209;-76
2022/10/17 14:42:31;;;;;;;1999.90;999.90;;;22.50;99.90;;;;;;6696767;88;20721;-75
2022/10/17 14:52:32;;;;;;;1999.90;999.90;;;22.50;99.90;;;;;;6702208;88;20211;-75
2022/10/17 15:02:33;;;;;;;1999.90;999.90;;;22.50;99.90;;;;;;6697283;88;20218;-75
2022/10/17 15:12:33;;;;;;;1999.90;999.90;;;22.30;99.90;;;;;;6697291;88;20661;-75
2022/10/17 15:22:35;;;;;;;1999.90;999.90;;;22.30;99.90;;;;;;6692661;88;20222;-75
2022/10/17 15:32:35;;;;;;;1999.90;999.90;;;22.20;99.90;;;;;;6696671;88;20584;-75
2022/10/17 15:42:36;;;;;;;1999.90;999.90;;;22.10;99.90;;;;;;6703212;77;20251;-76
2022/10/17 15:52:36;;;;;;;1999.90;999.90;;;22.10;99.90;;;;;;6713241;88;20185;-76
2022/10/17 16:02:37;;;;;;;1999.90;999.90;;;21.90;99.90;;;;;;6708566;88;20300;-76
2022/10/17 16:12:40;;;;;;;1999.90;999.90;;;21.70;99.90;;;;;;6704591;88;20683;-76
2022/10/17 16:22:43;;;;;;;1999.90;999.90;;;21.60;99.90;;;;;;6697638;88;20191;-76
2022/10/17 16:32:44;;;;;;;1999.90;999.90;;;21.60;99.90;;;;;;6711991;88;20198;-79
2022/10/17 16:42:44;;;;;;;1999.90;999.90;;;21.30;99.90;;;;;;6711145;88;20288;-79
2022/10/17 16:52:45;;;;;;;1999.90;999.90;;;21.10;99.90;;;;;;6650442;88;20181;-77
2022/10/17 17:02:48;;;;;;;1999.90;999.90;;;21.00;99.90;;;;;;6643414;88;20203;-79
2022/10/17 17:12:49;;;;;;;1999.90;999.90;;;20.90;99.90;;;;;;6647382;88;20226;-79
2022/10/17 17:22:51;;;;;;;1999.90;999.90;;;20.80;99.90;;;;;;6624854;89;20226;-77
2022/10/17 17:32:51;;;;;;;1999.90;999.90;;;20.50;99.90;;;;;;6649799;88;20190;-78
2022/10/17 17:42:52;;;;;;;1999.90;999.90;;;20.30;99.90;;;;;;6641250;88;20686;-78
2022/10/17 17:52:52;;;;;;;1999.90;999.90;;;20.20;99.90;;;;;;6649259;88;20251;-79
2022/10/17 18:02:53;;;;;;;1999.90;999.90;;;20.00;99.90;;;;;;6644108;88;20244;-78
2022/10/17 18:12:53;;;;;;;1999.90;999.90;;;19.80;99.90;;;;;;6632659;89;20196;-78
2022/10/17 18:22:54;;;;;;;1999.90;999.90;;;19.60;99.90;;;;;;6646841;88;20616;-78
2022/10/17 18:32:55;;;;;;;1999.90;999.90;;;19.40;99.90;;;;;;6635092;89;20246;-78
2022/10/17 18:42:55;;;;;;;1999.90;999.90;;;19.20;99.90;;;;;;6644436;88;20229;-77
2022/10/17 18:52:56;;;;;;;1999.90;999.90;;;19.00;99.90;;;;;;6630596;88;20314;-78
2022/10/17 19:02:56;;;;;;;1999.90;999.90;;;18.90;99.90;;;;;;6647517;88;20247;-78
2022/10/17 19:12:57;;;;;;;1999.90;999.90;;;18.70;99.90;;;;;;6631167;88;20201;-80
2022/10/17 19:22:57;;;;;;;1999.90;999.90;;;18.60;99.90;;;;;;6645070;88;20212;-78
2022/10/17 19:32:58;;;;;;;1999.90;999.90;;;18.50;99.90;;;;;;6634928;88;20332;-78
2022/10/17 19:42:58;;;;;;;1999.90;999.90;;;18.30;99.90;;;;;;6644423;88;20230;-77
2022/10/17 19:52:59;;;;;;;1999.90;999.90;;;18.10;99.90;;;;;;6698101;88;20242;-78
2022/10/17 20:03:01;;;;;;;1999.90;999.90;;;18.00;99.90;;;;;;6696559;88;20325;-77
2022/10/17 20:13:02;;;;;;;1999.90;999.90;;;17.90;99.90;;;;;;6707983;88;20232;-78
2022/10/17 20:23:03;;;;;;;1999.90;999.90;;;17.90;99.90;;;;;;6703416;88;20238;-78
2022/10/17 20:33:04;;;;;;;1999.90;999.90;;;17.70;99.90;;;;;;6705591;88;20229;-79
2022/10/17 20:43:06;;;;;;;1999.90;999.90;;;17.70;99.90;;;;;;6695516;88;20779;-78
2022/10/17 20:53:08;;;;;;;1999.90;999.90;;;17.30;99.90;;;;;;6649932;88;20268;-78
2022/10/17 21:03:08;;;;;;;1999.90;999.90;;;17.20;99.90;;;;;;6646089;89;20217;-77
2022/10/17 21:13:09;;;;;;;1999.90;999.90;;;17.00;99.90;;;;;;6630601;89;20201;-78
2022/10/17 21:23:09;;;;;;;1999.90;999.90;;;17.00;99.90;;;;;;6657573;88;20565;-79
2022/10/17 21:33:10;;;;;;;1999.90;999.90;;;16.90;99.90;;;;;;6632033;89;20635;-78
2022/10/17 21:43:10;;;;;;;1999.90;999.90;;;16.80;99.90;;;;;;6648447;77;20736;-78
2022/10/17 21:53:11;;;;;;;1999.90;999.90;;;16.70;99.90;;;;;;6697481;88;20625;-77
2022/10/17 22:03:13;;;;;;;1999.90;999.90;;;16.70;99.90;;;;;;6678705;88;21425;-77
2022/10/17 22:13:14;;;;;;;1999.90;999.90;;;16.60;99.90;;;;;;6669475;88;20199;-77
2022/10/17 22:23:14;;;;;;;1999.90;999.90;;;16.50;99.90;;;;;;6672067;88;20266;-77
2022/10/17 22:33:15;;;;;;;1999.90;999.90;;;16.60;99.90;;;;;;6668644;88;20264;-75
2022/10/17 22:43:16;;;;;;;1999.90;999.90;;;16.50;99.90;;;;;;6694286;88;20319;-75
2022/10/17 22:53:22;;;;;;;1999.90;999.90;;;16.50;99.90;;;;;;6694500;88;20190;-76
2022/10/17 23:03:25;;;;;;;1999.90;999.90;;;16.40;99.90;;;;;;6706116;88;20191;-77
2022/10/17 23:13:25;;;;;;;1999.90;999.90;;;16.40;99.90;;;;;;6693954;88;20203;-76
2022/10/17 23:23:26;;;;;;;1999.90;999.90;;;16.40;99.90;;;;;;6695539;88;20303;-75
2022/10/17 23:33:26;;;;;;;1999.90;999.90;;;16.40;99.90;;;;;;6696682;88;20241;-75
2022/10/17 23:43:27;;;;;;;1999.90;999.90;;;16.40;99.90;;;;;;6696055;88;20198;-75
2022/10/17 23:53:27;;;;;;;1999.90;999.90;;;16.40;99.90;;;;;;6690913;88;20175;-76
